Terminal Aerodrome Forecast
Issued by NWS Sterling, VA

Home | Current Version | Previous Version | Text Only | Print | Product List | Glossary On
Versions: 1 2 3 4 5 6 7 8 9 10 11 12 13 14 15 16 17 18 19 20 21 22 23 24 25 26 27 28 29
000
FTUS41 KLWX 040901 AAB
TAFIAD
TAF AMD
KIAD 040901Z 0409/0512 17008KT 6SM -RA BR OVC060
     FM041600 VRB04KT 3SM -RA BR OVC025
     FM050300 36005KT 1SM -RASN OVC008
     FM050900 34008KT 3/4SM -SNPL OVC006=

USA.gov is the U.S. government's official web portal to all federal, state and local government web resources and services.